»·PEaware :: AAL1470 KPHX-KLAS

AAL1470 :: KPHX-KLAS

FLIGHT INFORMATION

Flight Status: Arrived
Operator:
American Airlines
More flights by this operator :: More flights under this callsign
Pilot: Andrew C. (28419)
Aircraft: Unknown
(A21N)
More flights by this aircraft type
Origin: KPHX Phoenix Sky Harbor Intl
United States
Destination: KLAS McCarran Intl
United States
More flights between these airports :: More routes between these airports
Route: ZEPER2 RRSTA IGM TYSSN5
File this flight plan on PilotEdge
Remarks: RMK / SIMBRIEF
Altitude:
(Current/Filed)
30,000ft
Speed:
(Current/Filed)
441kts
Departed: 10-Jan-21 01:12 PM
Arrived: 10-Jan-21 02:00 PM
Distance/Time
Traveled:
221nm/0:48
Distance/Time
To Go:
Arrived

Flight Plot

Page will automatically refresh every two minutes.

Flight plan parsing failed; only flown route is shown


Map Options




Map Legend


Flown Route
Filed Route
Departure Airport
Arrival Airport
Navaid (VOR, NDB)
Fix

Horizontal Profiles

Position Reports

Time Latitude Longitude Heading Altitude Ground
Speed
10-Jan-21 12:34 33.437661 -112.002440 90 1144ft 0kts
10-Jan-21 12:36 33.437661 -112.002440 90 1144ft 0kts
10-Jan-21 12:37 33.437661 -112.002440 90 1144ft 0kts
10-Jan-21 12:37 33.437661 -112.002440 90 1144ft 0kts
10-Jan-21 12:38 33.437661 -112.002440 90 1144ft 0kts
10-Jan-21 12:39 33.437661 -112.002440 90 1144ft 0kts
10-Jan-21 12:40 33.437661 -112.002440 90 1144ft 0kts
10-Jan-21 12:41 33.437661 -112.002440 90 1144ft 0kts
10-Jan-21 12:42 33.437661 -112.002440 90 1144ft 0kts
10-Jan-21 12:43 33.437661 -112.002440 90 1144ft 0kts
10-Jan-21 12:44 33.437661 -112.002440 90 1144ft 0kts
10-Jan-21 12:45 33.437661 -112.002440 90 1144ft 0kts
10-Jan-21 12:46 33.437661 -112.002440 90 1144ft 0kts
10-Jan-21 12:47 33.437661 -112.002440 90 1144ft 0kts
10-Jan-21 12:48 33.437661 -112.002440 90 1144ft 0kts
10-Jan-21 12:49 33.437661 -112.002440 90 1144ft 0kts
10-Jan-21 12:50 33.437661 -112.002441 90 1144ft 0kts
10-Jan-21 12:51 33.437661 -112.002441 90 1144ft 0kts
10-Jan-21 12:52 33.437661 -112.002441 90 1144ft 0kts
10-Jan-21 12:53 33.437661 -112.002441 90 1144ft 0kts
10-Jan-21 12:54 33.437661 -112.002441 90 1144ft 0kts
10-Jan-21 12:55 33.437661 -112.002441 90 1144ft 0kts
10-Jan-21 12:56 33.437661 -112.002441 90 1144ft 0kts
10-Jan-21 12:57 33.437661 -112.002441 90 1144ft 0kts
10-Jan-21 12:58 33.437661 -112.002441 90 1144ft 0kts
10-Jan-21 12:59 33.437661 -112.002441 90 1144ft 0kts
10-Jan-21 13:00 33.437661 -112.002441 90 1144ft 0kts
10-Jan-21 13:01 33.437661 -112.002554 89 1144ft 2kts
10-Jan-21 13:02 33.437514 -112.003021 353 1144ft 1kts
10-Jan-21 13:03 33.437461 -112.003016 359 1144ft 0kts
10-Jan-21 13:04 33.437461 -112.003016 359 1144ft 0kts
10-Jan-21 13:05 33.437762 -112.003017 359 1144ft 8kts
10-Jan-21 13:06 33.439045 -112.004419 267 1144ft 14kts
10-Jan-21 13:07 33.439013 -112.010410 270 1144ft 19kts
10-Jan-21 13:08 33.439028 -112.016949 269 1144ft 19kts
10-Jan-21 13:09 33.439029 -112.023615 269 1144ft 20kts
10-Jan-21 13:10 33.439627 -112.029691 350 1144ft 15kts
10-Jan-21 13:11 33.440848 -112.022308 90 1144ft 108kts
10-Jan-21 13:12 33.439798 -111.970353 91 2913ft 163kts
10-Jan-21 13:13 33.436555 -111.905765 92 4167ft 231kts
10-Jan-21 13:14 33.473352 -111.846890 4 6515ft 272kts
10-Jan-21 13:15 33.550900 -111.842881 3 8951ft 285kts
10-Jan-21 13:16 33.629986 -111.837780 4 8989ft 285kts
10-Jan-21 13:17 33.709397 -111.845985 352 10511ft 290kts
10-Jan-21 13:18 33.773907 -111.915193 308 11813ft 355kts
10-Jan-21 13:19 33.832345 -112.012117 308 14682ft 360kts
10-Jan-21 13:20 33.891586 -112.109602 309 17283ft 371kts
10-Jan-21 13:21 33.952884 -112.210617 308 19813ft 380kts
10-Jan-21 13:22 34.016649 -112.314050 312 21180ft 386kts
10-Jan-21 13:23 34.095760 -112.402598 320 22410ft 392kts
10-Jan-21 13:24 34.180807 -112.487763 320 24487ft 399kts
10-Jan-21 13:25 34.264942 -112.572561 320 26750ft 392kts
10-Jan-21 13:26 34.347967 -112.656576 319 28586ft 388kts
10-Jan-21 13:27 34.430158 -112.740341 319 30164ft 385kts
10-Jan-21 13:28 34.513749 -112.825429 319 30230ft 396kts
10-Jan-21 13:29 34.597831 -112.911196 319 30235ft 395kts
10-Jan-21 13:30 34.681730 -112.996998 319 30241ft 394kts
10-Jan-21 13:31 34.765080 -113.083013 317 30247ft 394kts
10-Jan-21 13:32 34.838069 -113.182787 306 30248ft 396kts
10-Jan-21 13:33 34.893742 -113.298874 301 30249ft 398kts
10-Jan-21 13:34 34.954972 -113.410355 306 30249ft 397kts
10-Jan-21 13:35 35.019236 -113.519911 306 30249ft 397kts
10-Jan-21 13:36 35.082115 -113.627364 306 29049ft 382kts
10-Jan-21 13:37 35.144333 -113.733773 306 26475ft 390kts
10-Jan-21 13:38 35.207580 -113.842433 306 24261ft 383kts
10-Jan-21 13:39 35.267098 -113.937600 316 24223ft 324kts
10-Jan-21 13:40 35.338172 -114.005886 321 22493ft 319kts
10-Jan-21 13:41 35.407163 -114.070057 322 20543ft 317kts
10-Jan-21 13:42 35.479201 -114.137186 322 18683ft 325kts
10-Jan-21 13:43 35.550689 -114.203777 323 16878ft 321kts
10-Jan-21 13:44 35.620942 -114.269392 323 15099ft 315kts
10-Jan-21 13:45 35.688973 -114.333093 324 13366ft 295kts
10-Jan-21 13:46 35.752895 -114.387597 337 11887ft 267kts
10-Jan-21 13:47 35.822317 -114.420489 340 11983ft 267kts
10-Jan-21 13:48 35.891218 -114.452690 340 11970ft 254kts
10-Jan-21 13:49 35.955644 -114.482874 340 10765ft 246kts
10-Jan-21 13:50 36.017270 -114.511797 340 10174ft 232kts
10-Jan-21 13:51 36.047664 -114.577529 283 9981ft 239kts
10-Jan-21 13:52 36.061268 -114.658001 282 8900ft 240kts
10-Jan-21 13:53 36.073208 -114.738842 273 7836ft 236kts
10-Jan-21 13:54 36.074343 -114.819862 269 6857ft 233kts
10-Jan-21 13:55 36.074105 -114.899378 269 5628ft 229kts
10-Jan-21 13:56 36.073916 -114.977157 269 4425ft 223kts
10-Jan-21 13:58 36.073753 -115.052016 270 3253ft 204kts
10-Jan-21 13:59 36.073671 -115.113230 271 2298ft 153kts
10-Jan-21 14:00 36.074205 -115.149392 295 2122ft 32kts
10-Jan-21 14:01 36.074863 -115.150842 301 2124ft 9kts
10-Jan-21 14:02 36.077894 -115.148013 95 2109ft 31kts
10-Jan-21 14:03 36.077558 -115.136816 89 2074ft 33kts
10-Jan-21 14:04 36.079971 -115.134823 318 2070ft 5kts
10-Jan-21 14:05 36.080072 -115.134930 319 2070ft 0kts
10-Jan-21 14:06 36.080072 -115.134930 319 2070ft 0kts
10-Jan-21 14:07 36.080072 -115.134930 319 2070ft 0kts
10-Jan-21 14:08 36.080072 -115.134930 319 2070ft 0kts
10-Jan-21 14:09 36.080072 -115.134930 319 2070ft 0kts
10-Jan-21 14:10 36.080072 -115.134930 319 2070ft 0kts
10-Jan-21 14:11 36.080072 -115.134930 319 2070ft 0kts
10-Jan-21 14:12 36.080072 -115.134930 319 2070ft 0kts
10-Jan-21 14:13 36.080072 -115.134930 319 2070ft 0kts
10-Jan-21 14:13 36.080072 -115.134930 319 2070ft 0kts

Navigation Log

Ident Type
Flight plan parsing failed, navigation log unavailable